Terminal Aerodrome Forecast
Issued by NWS New Orleans/Baton Rouge, LA

Home | Current Version | Previous Version | Text Only | Print | Product List | Glossary On
Versions: 1 2 3 4 5 6 7 8 9 10 11 12
000
FTUS44 KLIX 191120
TAFBTR
TAF
KBTR 191120Z 1912/2012 09005KT P6SM FEW130 FEW250=

USA.gov is the U.S. government's official web portal to all federal, state and local government web resources and services.